createdAt,value
2023-04-25T05:01:11.365Z,500.00
2023-04-25T05:02:11.474Z,500.00
2023-04-25T05:03:11.567Z,500.00
2023-04-25T05:04:11.657Z,500.00
2023-04-25T05:05:11.477Z,500.00
2023-04-25T05:06:11.523Z,500.00
2023-04-25T05:07:11.566Z,400.00
2023-04-25T05:08:11.572Z,400.00
2023-04-25T05:09:11.590Z,400.00
2023-04-25T05:10:11.683Z,400.00
2023-04-25T05:11:11.706Z,400.00
2023-04-25T05:12:11.744Z,400.00
2023-04-25T05:13:11.750Z,400.00
2023-04-25T05:14:11.795Z,400.00
2023-04-25T05:15:11.808Z,400.00
2023-04-25T05:16:11.879Z,400.00
2023-04-25T05:17:11.860Z,400.00
2023-04-25T05:18:11.931Z,400.00
2023-04-25T05:19:11.908Z,400.00
2023-04-25T05:20:11.940Z,400.00
2023-04-25T05:21:11.916Z,400.00
2023-04-25T05:22:11.909Z,400.00
2023-04-25T05:23:11.973Z,400.00
2023-04-25T05:24:12.012Z,400.00
2023-04-25T05:25:11.984Z,400.00
2023-04-25T05:26:11.986Z,400.00
2023-04-25T05:27:11.984Z,409.00
2023-04-25T05:28:12.030Z,445.00
2023-04-25T05:29:12.066Z,461.00
2023-04-25T05:30:12.063Z,498.00
2023-04-25T05:31:12.068Z,507.00
2023-04-25T05:32:12.160Z,510.00
2023-04-25T05:33:12.175Z,506.00
2023-04-25T05:34:12.131Z,500.00
2023-04-25T05:35:12.185Z,488.00
2023-04-25T05:36:12.211Z,518.00
2023-04-25T05:37:12.224Z,496.00
2023-04-25T05:38:12.248Z,486.00
2023-04-25T05:39:12.338Z,507.00
2023-04-25T05:40:12.337Z,518.00
2023-04-25T05:41:12.432Z,509.00
2023-04-25T05:42:12.412Z,503.00
2023-04-25T05:43:12.431Z,502.00
2023-04-25T05:44:12.449Z,503.00
2023-04-25T05:45:12.511Z,523.00
2023-04-25T05:46:12.630Z,507.00
2023-04-25T05:47:12.615Z,500.00
2023-04-25T05:48:12.657Z,530.00
2023-04-25T05:49:12.642Z,542.00
2023-04-25T05:50:12.654Z,549.00
2023-04-25T05:51:12.636Z,553.00
2023-04-25T05:52:12.678Z,559.00
2023-04-25T05:53:12.716Z,561.00
2023-04-25T05:54:12.675Z,546.00
2023-04-25T05:55:12.788Z,537.00
2023-04-25T05:56:12.755Z,531.00
2023-04-25T05:57:12.836Z,501.00
2023-04-25T05:58:12.913Z,500.00
2023-04-25T05:59:12.931Z,500.00
2023-04-25T06:00:12.940Z,511.00
2023-04-25T06:01:12.991Z,522.00
2023-04-25T06:02:13.111Z,565.00
2023-04-25T06:03:13.266Z,586.00
2023-04-25T06:04:13.438Z,559.00
2023-04-25T06:05:14.612Z,565.00
2023-04-25T06:06:13.126Z,573.00
2023-04-25T06:07:13.184Z,579.00
2023-04-25T06:08:13.221Z,599.00
2023-04-25T06:09:14.460Z,610.00
2023-04-25T06:10:13.305Z,603.00
2023-04-25T06:11:13.354Z,618.00
2023-04-25T06:12:13.372Z,626.00
2023-04-25T06:13:13.432Z,635.00
2023-04-25T06:14:13.389Z,622.00
2023-04-25T06:15:27.187Z,635.00
2023-04-25T06:16:14.436Z,636.00
2023-04-25T06:17:13.422Z,638.00
2023-04-25T06:18:13.446Z,648.00
2023-04-25T06:19:13.399Z,654.00
2023-04-25T06:20:13.442Z,686.00
2023-04-25T06:21:13.364Z,721.00
2023-04-25T06:22:13.385Z,728.00
2023-04-25T06:23:13.391Z,682.00
2023-04-25T06:24:13.363Z,718.00
2023-04-25T06:25:13.375Z,736.00
2023-04-25T06:26:13.415Z,792.00
2023-04-25T06:27:14.733Z,831.00
2023-04-25T06:28:13.448Z,809.00
2023-04-25T06:29:13.525Z,768.00
2023-04-25T06:30:13.428Z,795.00
2023-04-25T06:31:13.450Z,792.00
2023-04-25T06:32:13.426Z,800.00
2023-04-25T06:33:13.469Z,735.00
2023-04-25T06:34:13.443Z,779.00
2023-04-25T06:35:13.394Z,784.00
2023-04-25T06:36:13.392Z,814.00
2023-04-25T06:37:13.411Z,762.00
2023-04-25T06:38:13.411Z,768.00
2023-04-25T06:39:13.385Z,780.00
2023-04-25T06:40:13.520Z,714.00
2023-04-25T06:41:13.376Z,791.00
2023-04-25T06:42:13.376Z,737.00
2023-04-25T06:43:13.354Z,746.00
2023-04-25T06:44:13.327Z,684.00
2023-04-25T06:45:13.352Z,705.00
2023-04-25T06:46:13.396Z,783.00
2023-04-25T06:47:13.326Z,824.00
2023-04-25T06:48:13.332Z,729.00
2023-04-25T06:49:13.361Z,794.00
2023-04-25T06:50:13.281Z,771.00
2023-04-25T06:51:13.308Z,768.00
2023-04-25T06:52:13.281Z,673.00
2023-04-25T06:53:13.284Z,741.00
2023-04-25T06:54:13.263Z,750.00
2023-04-25T06:55:13.274Z,793.00
2023-04-25T06:56:13.264Z,792.00
2023-04-25T06:57:13.271Z,796.00
2023-04-25T06:58:13.256Z,849.00
2023-04-25T06:59:13.245Z,806.00
2023-04-25T07:00:13.241Z,796.00
2023-04-25T07:01:13.322Z,733.00
2023-04-25T07:02:13.282Z,755.00
2023-04-25T07:03:13.395Z,785.00
2023-04-25T07:04:13.446Z,819.00
2023-04-25T07:05:13.245Z,907.00
2023-04-25T07:06:13.188Z,866.00
2023-04-25T07:07:13.173Z,899.00
2023-04-25T07:08:13.231Z,888.00
2023-04-25T07:09:13.180Z,852.00
2023-04-25T07:10:13.200Z,851.00
2023-04-25T07:11:13.165Z,881.00
2023-04-25T07:12:13.151Z,895.00
2023-04-25T07:13:13.155Z,896.00
2023-04-25T07:14:13.171Z,899.00
2023-04-25T07:15:13.178Z,915.00
2023-04-25T07:16:13.171Z,855.00
2023-04-25T07:17:13.131Z,875.00
2023-04-25T07:18:13.174Z,811.00
2023-04-25T07:19:13.131Z,882.00
2023-04-25T07:20:13.152Z,843.00
2023-04-25T07:21:13.112Z,693.00
2023-04-25T07:22:13.149Z,745.00
2023-04-25T07:23:13.068Z,757.00
2023-04-25T07:24:13.074Z,793.00
2023-04-25T07:25:13.158Z,830.00
2023-04-25T07:26:13.041Z,702.00
2023-04-25T07:27:13.101Z,769.00
2023-04-25T07:28:13.048Z,748.00
2023-04-25T07:29:13.061Z,746.00
2023-04-25T07:30:13.034Z,725.00
2023-04-25T07:31:13.023Z,827.00
2023-04-25T07:32:13.257Z,724.00
2023-04-25T07:33:13.065Z,726.00
2023-04-25T07:34:13.024Z,704.00
2023-04-25T07:35:12.989Z,761.00
2023-04-25T07:36:12.965Z,718.00
2023-04-25T07:37:12.990Z,657.00
2023-04-25T07:38:12.996Z,658.00
2023-04-25T07:39:12.961Z,707.00
2023-04-25T07:40:12.999Z,683.00
2023-04-25T07:41:12.948Z,739.00
2023-04-25T07:42:12.970Z,538.00
2023-04-25T07:43:12.952Z,500.00
2023-04-25T07:44:12.959Z,521.00
2023-04-25T07:45:12.899Z,519.00
2023-04-25T07:46:13.013Z,516.00
2023-04-25T07:47:12.932Z,510.00
2023-04-25T07:48:12.956Z,553.00
2023-04-25T07:49:12.870Z,571.00
2023-04-25T07:50:12.941Z,576.00
2023-04-25T07:51:12.907Z,605.00
2023-04-25T07:52:12.943Z,574.00
2023-04-25T07:53:12.993Z,625.00
2023-04-25T07:54:13.030Z,600.00
2023-04-25T07:55:13.129Z,569.00
2023-04-25T07:56:13.147Z,593.00
2023-04-25T07:57:13.145Z,575.00
2023-04-25T07:58:13.197Z,531.00
2023-04-25T07:59:13.214Z,517.00
2023-04-25T08:00:13.311Z,493.00
2023-04-25T08:01:13.350Z,515.00
2023-04-25T08:02:13.417Z,557.00
2023-04-25T08:03:13.621Z,701.00
2023-04-25T08:04:13.580Z,803.00
2023-04-25T08:05:13.816Z,907.00
2023-04-25T08:06:13.822Z,865.00
2023-04-25T08:07:13.618Z,938.00
2023-04-25T08:08:13.656Z,1075.00
2023-04-25T08:09:13.776Z,1109.00
2023-04-25T08:10:13.735Z,1013.00
2023-04-25T08:11:13.852Z,1005.00
2023-04-25T08:12:13.800Z,1055.00
2023-04-25T08:13:13.935Z,1118.00
2023-04-25T08:14:13.896Z,1181.00
2023-04-25T08:15:13.894Z,1199.00
2023-04-25T08:16:13.968Z,1133.00
2023-04-25T08:17:13.976Z,1043.00
2023-04-25T08:18:16.233Z,1051.00
2023-04-25T08:19:13.990Z,1058.00
2023-04-25T08:20:14.000Z,1073.00
2023-04-25T08:21:13.984Z,1089.00
2023-04-25T08:22:14.033Z,1082.00
2023-04-25T08:23:13.984Z,1171.00
2023-04-25T08:24:13.983Z,1087.00
2023-04-25T08:25:13.980Z,1086.00
2023-04-25T08:26:13.962Z,1160.00
2023-04-25T08:27:14.036Z,1158.00
2023-04-25T08:28:13.945Z,1129.00
2023-04-25T08:29:13.921Z,906.00
2023-04-25T08:30:13.945Z,979.00
2023-04-25T08:31:13.952Z,875.00
2023-04-25T08:32:14.224Z,732.00
2023-04-25T08:33:13.941Z,628.00
2023-04-25T08:34:13.889Z,713.00
2023-04-25T08:35:13.932Z,855.00
2023-04-25T08:36:17.325Z,966.00
2023-04-25T08:37:14.839Z,970.00
2023-04-25T08:38:13.870Z,988.00
2023-04-25T08:39:14.978Z,1016.00
2023-04-25T08:40:13.976Z,1085.00
2023-04-25T08:41:13.911Z,1215.00
2023-04-25T08:42:13.858Z,1268.00
2023-04-25T08:43:13.825Z,1358.00
2023-04-25T08:44:13.862Z,1381.00
2023-04-25T08:45:13.857Z,1406.00
2023-04-25T08:46:13.842Z,1432.00
2023-04-25T08:47:13.948Z,1475.00
2023-04-25T08:48:13.856Z,1502.00
2023-04-25T08:49:13.797Z,1556.00
2023-04-25T08:50:13.779Z,1607.00
2023-04-25T08:51:13.796Z,1624.00
2023-04-25T08:52:13.825Z,1640.00
2023-04-25T08:53:13.754Z,1673.00
2023-04-25T08:54:28.067Z,1675.00
2023-04-25T08:55:14.772Z,1677.00
2023-04-25T08:56:13.782Z,1684.00
2023-04-25T08:57:13.727Z,1697.00
2023-04-25T08:58:13.955Z,1301.00
2023-04-25T08:59:13.718Z,987.00
2023-04-25T09:00:13.690Z,751.00
2023-04-25T09:01:13.732Z,653.00
2023-04-25T09:02:13.908Z,622.00
2023-04-25T09:03:13.933Z,624.00
2023-04-25T09:04:13.853Z,627.00
2023-04-25T09:05:13.869Z,627.00
2023-04-25T09:06:13.661Z,575.00
2023-04-25T09:07:13.633Z,587.00
2023-04-25T09:08:13.635Z,564.00
2023-04-25T09:09:13.632Z,599.00
2023-04-25T09:10:13.649Z,549.00
2023-04-25T09:11:13.624Z,501.00
2023-04-25T09:12:13.620Z,545.00
2023-04-25T09:13:13.614Z,648.00
2023-04-25T09:14:13.639Z,658.00
2023-04-25T09:16:14.707Z,551.00
2023-04-25T09:17:13.725Z,609.00
2023-04-25T09:18:13.737Z,680.00
2023-04-25T09:19:13.680Z,644.00
2023-04-25T09:20:13.683Z,608.00
2023-04-25T09:21:14.968Z,642.00
2023-04-25T09:22:13.681Z,679.00
2023-04-25T09:23:13.616Z,683.00
2023-04-25T09:24:13.621Z,826.00
2023-04-25T09:25:13.655Z,909.00
2023-04-25T09:26:13.683Z,958.00
2023-04-25T09:27:13.730Z,965.00
2023-04-25T09:28:13.775Z,1045.00
2023-04-25T09:29:13.797Z,1164.00
2023-04-25T09:30:13.829Z,1155.00
2023-04-25T09:31:13.869Z,1151.00
2023-04-25T09:32:14.163Z,1271.00
2023-04-25T09:33:13.972Z,1264.00
2023-04-25T09:34:13.905Z,1308.00
2023-04-25T09:35:13.913Z,1328.00
2023-04-25T09:36:13.938Z,1354.00
2023-04-25T09:37:13.944Z,1282.00
2023-04-25T09:38:13.954Z,1360.00
2023-04-25T09:39:13.912Z,1388.00
2023-04-25T09:40:13.941Z,1402.00
2023-04-25T09:41:13.936Z,1443.00
2023-04-25T09:42:13.936Z,1460.00
2023-04-25T09:43:13.949Z,1484.00
2023-04-25T09:44:14.040Z,1491.00
2023-04-25T09:45:14.008Z,1502.00
2023-04-25T09:46:14.018Z,1506.00
2023-04-25T09:47:14.065Z,1528.00
2023-04-25T09:48:15.026Z,1566.00
2023-04-25T09:49:14.039Z,1549.00
2023-04-25T09:50:14.095Z,1584.00
2023-04-25T09:51:14.128Z,1591.00
2023-04-25T09:52:14.150Z,1610.00
2023-04-25T09:53:14.139Z,1618.00
2023-04-25T09:54:14.187Z,1637.00
2023-04-25T09:55:14.292Z,1649.00
2023-04-25T09:56:14.257Z,1667.00
2023-04-25T09:57:14.290Z,1677.00
2023-04-25T09:58:14.287Z,1686.00
2023-04-25T09:59:14.363Z,1684.00
2023-04-25T10:00:14.401Z,1683.00
2023-04-25T10:01:14.397Z,1683.00
2023-04-25T10:02:14.448Z,1699.00
2023-04-25T10:03:14.554Z,1718.00
2023-04-25T10:04:14.555Z,1710.00
2023-04-25T10:05:14.586Z,1717.00
2023-04-25T10:06:14.569Z,1729.00
2023-04-25T10:07:14.652Z,1723.00
2023-04-25T10:08:14.665Z,1733.00
2023-04-25T10:09:14.709Z,1745.00
2023-04-25T10:10:14.847Z,1734.00
2023-04-25T10:11:14.772Z,1733.00
2023-04-25T10:12:14.848Z,1743.00
2023-04-25T10:13:14.839Z,1735.00
2023-04-25T10:14:14.906Z,1757.00
2023-04-25T10:15:14.894Z,1463.00
2023-04-25T10:16:14.976Z,1123.00
2023-04-25T10:17:14.939Z,1034.00
2023-04-25T10:18:15.123Z,960.00
2023-04-25T10:19:14.978Z,828.00
2023-04-25T10:20:14.976Z,780.00
2023-04-25T10:21:14.976Z,790.00
2023-04-25T10:22:15.019Z,872.00
2023-04-25T10:23:15.053Z,998.00
2023-04-25T10:24:15.032Z,944.00
2023-04-25T10:25:15.058Z,1008.00
2023-04-25T10:26:15.141Z,961.00
2023-04-25T10:27:15.036Z,1010.00
2023-04-25T10:28:15.070Z,981.00
2023-04-25T10:29:15.519Z,979.00
2023-04-25T10:30:15.156Z,1032.00
2023-04-25T10:31:15.180Z,1002.00
2023-04-25T10:32:15.212Z,941.00
2023-04-25T10:33:15.118Z,837.00
2023-04-25T10:34:15.113Z,833.00
2023-04-25T10:35:15.145Z,842.00
2023-04-25T10:36:15.142Z,822.00
2023-04-25T10:37:15.150Z,831.00
2023-04-25T10:38:15.233Z,813.00
2023-04-25T10:39:15.190Z,821.00
2023-04-25T10:40:15.204Z,835.00
2023-04-25T10:41:15.287Z,854.00
2023-04-25T10:42:15.210Z,904.00
2023-04-25T10:43:15.222Z,921.00
2023-04-25T10:44:15.256Z,889.00
2023-04-25T10:45:15.285Z,861.00
2023-04-25T10:46:15.347Z,772.00
2023-04-25T10:47:15.297Z,716.00
2023-04-25T10:48:15.303Z,785.00
2023-04-25T10:49:16.242Z,769.00
2023-04-25T10:50:15.357Z,759.00
2023-04-25T10:51:15.414Z,758.00
2023-04-25T10:52:15.371Z,783.00
2023-04-25T10:53:15.373Z,724.00
2023-04-25T10:54:15.426Z,709.00
2023-04-25T10:55:15.437Z,744.00
2023-04-25T10:56:15.543Z,857.00
2023-04-25T10:57:15.440Z,875.00
2023-04-25T10:58:15.465Z,827.00
2023-04-25T10:59:15.458Z,941.00
2023-04-25T11:00:15.619Z,993.00
2023-04-25T11:01:15.563Z,1071.00
2023-04-25T11:02:15.736Z,1086.00
2023-04-25T11:03:15.594Z,1095.00
2023-04-25T11:04:15.747Z,1095.00
2023-04-25T11:05:15.489Z,1090.00
2023-04-25T11:06:15.488Z,1132.00
2023-04-25T11:07:15.534Z,1262.00
2023-04-25T11:08:15.510Z,1289.00
2023-04-25T11:09:15.551Z,1278.00
2023-04-25T11:10:15.487Z,1289.00
2023-04-25T11:11:15.523Z,1256.00
2023-04-25T11:12:15.559Z,1091.00
2023-04-25T11:13:15.544Z,1163.00
2023-04-25T11:14:15.516Z,1140.00
2023-04-25T11:15:15.580Z,1178.00
2023-04-25T11:16:23.750Z,1213.00
2023-04-25T11:17:16.686Z,1151.00
2023-04-25T11:18:15.578Z,931.00
2023-04-25T11:19:15.518Z,913.00
2023-04-25T11:20:15.523Z,995.00
2023-04-25T11:21:15.538Z,985.00
2023-04-25T11:22:15.527Z,918.00
2023-04-25T11:23:15.594Z,945.00
2023-04-25T11:24:15.497Z,906.00
2023-04-25T11:25:15.524Z,985.00
2023-04-25T11:26:15.504Z,762.00
2023-04-25T11:27:15.493Z,682.00
2023-04-25T11:28:15.516Z,588.00
2023-04-25T11:29:15.442Z,503.00
2023-04-25T11:30:15.453Z,603.00
2023-04-25T11:31:15.444Z,681.00
2023-04-25T11:32:15.611Z,767.00
2023-04-25T11:33:15.529Z,690.00
2023-04-25T11:34:15.452Z,701.00
2023-04-25T11:35:15.420Z,752.00
2023-04-25T11:36:15.412Z,801.00
2023-04-25T11:37:15.452Z,810.00
2023-04-25T11:38:15.396Z,754.00
2023-04-25T11:39:15.422Z,666.00
2023-04-25T11:40:15.458Z,705.00
2023-04-25T11:41:15.491Z,740.00
2023-04-25T11:42:15.496Z,712.00
2023-04-25T11:43:15.540Z,665.00
2023-04-25T11:44:15.603Z,727.00
2023-04-25T11:45:15.589Z,661.00
2023-04-25T11:46:15.635Z,749.00
2023-04-25T11:47:15.667Z,657.00
2023-04-25T11:48:15.731Z,645.00
2023-04-25T11:49:15.693Z,600.00
2023-04-25T11:50:15.704Z,745.00
2023-04-25T11:51:15.757Z,655.00
2023-04-25T11:52:15.780Z,633.00
2023-04-25T11:53:15.809Z,664.00
2023-04-25T11:54:15.858Z,720.00
2023-04-25T11:55:15.906Z,656.00
2023-04-25T11:56:15.905Z,698.00
2023-04-25T11:57:15.931Z,755.00
2023-04-25T11:58:15.960Z,830.00
2023-04-25T11:59:15.970Z,772.00
2023-04-25T12:00:18.705Z,816.00
2023-04-25T12:01:15.985Z,779.00
2023-04-25T12:02:16.071Z,818.00
2023-04-25T12:03:16.202Z,937.00
2023-04-25T12:04:16.160Z,924.00
2023-04-25T12:05:31.050Z,661.00
2023-04-25T12:06:17.139Z,661.00
2023-04-25T12:07:16.118Z,658.00
2023-04-25T12:08:16.187Z,659.00
2023-04-25T12:09:16.113Z,694.00
2023-04-25T12:10:16.163Z,848.00
2023-04-25T12:11:16.192Z,816.00
2023-04-25T12:12:16.239Z,846.00
2023-04-25T12:13:16.544Z,671.00
2023-04-25T12:14:16.246Z,658.00
2023-04-25T12:15:16.303Z,742.00
2023-04-25T12:16:16.362Z,752.00
2023-04-25T12:17:16.275Z,812.00
2023-04-25T12:18:16.347Z,684.00
2023-04-25T12:19:16.331Z,685.00
2023-04-25T12:20:16.377Z,670.00
2023-04-25T12:21:16.331Z,698.00
2023-04-25T12:22:16.407Z,672.00
2023-04-25T12:23:16.389Z,628.00
2023-04-25T12:24:16.351Z,790.00
2023-04-25T12:25:16.362Z,707.00
2023-04-25T12:26:16.388Z,625.00
2023-04-25T12:27:16.482Z,648.00
2023-04-25T12:28:16.438Z,645.00
2023-04-25T12:29:16.480Z,632.00
2023-04-25T12:30:16.456Z,633.00
2023-04-25T12:31:16.533Z,641.00
2023-04-25T12:32:16.665Z,656.00
2023-04-25T12:33:16.606Z,637.00
2023-04-25T12:34:16.520Z,617.00
2023-04-25T12:35:16.507Z,564.00
2023-04-25T12:36:16.563Z,589.00
2023-04-25T12:37:16.601Z,603.00
2023-04-25T12:38:16.638Z,600.00
2023-04-25T12:39:16.642Z,582.00
2023-04-25T12:40:16.653Z,617.00
2023-04-25T12:41:16.623Z,644.00
2023-04-25T12:42:16.656Z,660.00
2023-04-25T12:43:16.717Z,709.00
2023-04-25T12:44:16.680Z,709.00
2023-04-25T12:45:16.713Z,807.00
2023-04-25T12:46:16.695Z,656.00
2023-04-25T12:47:16.683Z,661.00
2023-04-25T12:48:16.724Z,736.00
2023-04-25T12:49:19.070Z,753.00
2023-04-25T12:50:16.837Z,701.00
2023-04-25T12:51:16.837Z,714.00
2023-04-25T12:52:16.835Z,850.00
2023-04-25T12:53:16.903Z,649.00
2023-04-25T12:54:16.866Z,439.00
2023-04-25T12:55:16.894Z,413.00
2023-04-25T12:56:16.899Z,554.00
2023-04-25T12:57:16.929Z,556.00
2023-04-25T12:58:16.952Z,567.00
2023-04-25T12:59:16.976Z,598.00
2023-04-25T13:00:17.023Z,475.00
2023-04-25T13:01:17.069Z,423.00
2023-04-25T13:02:17.160Z,512.00
2023-04-25T13:03:17.232Z,479.00
2023-04-25T13:04:17.516Z,523.00
2023-04-25T13:05:17.243Z,521.00
2023-04-25T13:06:17.248Z,635.00
2023-04-25T13:07:17.207Z,840.00
2023-04-25T13:08:17.255Z,1026.00
2023-04-25T13:09:17.302Z,947.00
2023-04-25T13:10:17.318Z,855.00
2023-04-25T13:11:17.395Z,895.00
2023-04-25T13:12:17.470Z,834.00
2023-04-25T13:13:17.486Z,915.00
2023-04-25T13:14:17.522Z,1013.00
2023-04-25T13:15:17.550Z,1124.00
2023-04-25T13:16:17.589Z,989.00
2023-04-25T13:17:17.712Z,1090.00
2023-04-25T13:18:17.750Z,1183.00
2023-04-25T13:19:17.700Z,1202.00
2023-04-25T13:20:17.652Z,1163.00
2023-04-25T13:21:17.682Z,1233.00
2023-04-25T13:22:17.750Z,1197.00
2023-04-25T13:23:17.725Z,1323.00
2023-04-25T13:24:17.771Z,1288.00
2023-04-25T13:25:17.779Z,1362.00
2023-04-25T13:26:17.760Z,992.00
2023-04-25T13:27:17.783Z,620.00
2023-04-25T13:28:17.770Z,580.00
2023-04-25T13:29:17.865Z,703.00
2023-04-25T13:30:17.847Z,984.00
2023-04-25T13:31:17.967Z,953.00
2023-04-25T13:32:17.937Z,781.00
2023-04-25T13:33:17.961Z,830.00
2023-04-25T13:34:17.953Z,868.00
2023-04-25T13:35:17.972Z,908.00
2023-04-25T13:36:18.031Z,978.00
2023-04-25T13:37:18.055Z,998.00
2023-04-25T13:38:18.050Z,975.00
2023-04-25T13:39:18.046Z,1006.00
2023-04-25T13:40:18.109Z,1170.00
2023-04-25T13:41:18.062Z,1194.00
2023-04-25T13:42:18.090Z,1125.00
2023-04-25T13:43:18.084Z,1146.00
2023-04-25T13:44:18.099Z,1246.00
2023-04-25T13:45:18.131Z,1326.00
2023-04-25T13:47:18.143Z,1359.00
2023-04-25T13:48:18.126Z,1294.00
2023-04-25T13:49:18.095Z,1390.00
2023-04-25T13:50:18.109Z,1362.00
2023-04-25T13:51:18.050Z,1401.00
2023-04-25T13:52:18.082Z,1366.00
2023-04-25T13:53:18.107Z,1334.00
2023-04-25T13:54:18.037Z,991.00
2023-04-25T13:55:18.039Z,1022.00
2023-04-25T13:56:18.077Z,1230.00
2023-04-25T13:57:18.044Z,1453.00
2023-04-25T13:58:18.056Z,1341.00
2023-04-25T13:59:18.066Z,1426.00
2023-04-25T14:00:18.048Z,1472.00
2023-04-25T14:01:17.983Z,1373.00
2023-04-25T14:02:18.015Z,1297.00
2023-04-25T14:03:18.071Z,1103.00
2023-04-25T14:04:18.036Z,1311.00
2023-04-25T14:05:18.052Z,1433.00
2023-04-25T14:06:18.000Z,1245.00
2023-04-25T14:07:17.982Z,1376.00
2023-04-25T14:08:17.979Z,1563.00
2023-04-25T14:09:17.956Z,1669.00
2023-04-25T14:10:17.994Z,1727.00
2023-04-25T14:11:17.975Z,1748.00
2023-04-25T14:12:17.971Z,1768.00
2023-04-25T14:13:17.935Z,1764.00
2023-04-25T14:14:17.958Z,1825.00
2023-04-25T14:15:17.935Z,1879.00
2023-04-25T14:16:18.213Z,1895.00
2023-04-25T14:17:17.948Z,1898.00
2023-04-25T14:18:17.906Z,1902.00
2023-04-25T14:19:20.209Z,1934.00
2023-04-25T14:20:17.912Z,1935.00
2023-04-25T14:21:17.892Z,1935.00
2023-04-25T14:22:17.903Z,1938.00
2023-04-25T14:23:17.848Z,1976.00
2023-04-25T14:24:17.844Z,1988.00
2023-04-25T14:25:17.913Z,2015.00
2023-04-25T14:26:17.856Z,2004.00
2023-04-25T14:27:17.836Z,1982.00
2023-04-25T14:28:17.850Z,1999.00
2023-04-25T14:29:17.832Z,2024.00
2023-04-25T14:30:17.862Z,2071.00
2023-04-25T14:31:17.862Z,2066.00
2023-04-25T14:32:17.851Z,2072.00
2023-04-25T14:33:17.854Z,2100.00
2023-04-25T14:34:17.823Z,2143.00
2023-04-25T14:35:17.819Z,2171.00
2023-04-25T14:36:17.789Z,2183.00
2023-04-25T14:37:17.801Z,2168.00
2023-04-25T14:38:17.802Z,2190.00
2023-04-25T14:39:17.801Z,2200.00
2023-04-25T14:40:17.781Z,2203.00
2023-04-25T14:41:17.795Z,2200.00
2023-04-25T14:42:17.751Z,2229.00
2023-04-25T14:43:17.780Z,2238.00
2023-04-25T14:44:17.730Z,2246.00
2023-04-25T14:45:17.757Z,2247.00
2023-04-25T14:46:17.800Z,2231.00
2023-04-25T14:47:17.702Z,2245.00
2023-04-25T14:48:17.797Z,2261.00
2023-04-25T14:49:17.743Z,2270.00
2023-04-25T14:50:17.690Z,2273.00
2023-04-25T14:51:17.701Z,2273.00
2023-04-25T14:52:17.710Z,2296.00
2023-04-25T14:53:17.696Z,2295.00
2023-04-25T14:54:17.679Z,2289.00
2023-04-25T14:55:17.716Z,2052.00
2023-04-25T14:56:17.668Z,1661.00
2023-04-25T14:57:17.699Z,1497.00
2023-04-25T14:58:17.722Z,1416.00
2023-04-25T14:59:17.766Z,1828.00
2023-04-25T15:00:17.902Z,2180.00
2023-04-25T15:01:17.961Z,2215.00
2023-04-25T15:02:17.961Z,2214.00
2023-04-25T15:03:18.221Z,2221.00
2023-04-25T15:04:18.102Z,2237.00
2023-04-25T15:05:18.082Z,2188.00
2023-04-25T15:06:18.156Z,2238.00
2023-04-25T15:07:18.758Z,2270.00
2023-04-25T15:08:18.235Z,2272.00
2023-04-25T15:09:19.355Z,2302.00
2023-04-25T15:10:18.338Z,2304.00
2023-04-25T15:11:18.381Z,2318.00
2023-04-25T15:12:18.419Z,2332.00
2023-04-25T15:13:18.473Z,2324.00
2023-04-25T15:14:18.534Z,2372.00
2023-04-25T15:15:26.121Z,2379.00
2023-04-25T15:16:19.556Z,2382.00
2023-04-25T15:17:18.521Z,2396.00
2023-04-25T15:18:18.631Z,2431.00
2023-04-25T15:19:18.533Z,2481.00
2023-04-25T15:20:18.480Z,2558.00
2023-04-25T15:21:18.471Z,2576.00
2023-04-25T15:22:18.503Z,2587.00
2023-04-25T15:23:18.511Z,2592.00
2023-04-25T15:24:18.458Z,2568.00
2023-04-25T15:25:18.429Z,2573.00
2023-04-25T15:26:18.441Z,2562.00
2023-04-25T15:27:18.466Z,2575.00
2023-04-25T15:28:18.493Z,2567.00
2023-04-25T15:29:18.497Z,2554.00
2023-04-25T15:30:18.567Z,2547.00
2023-04-25T15:31:18.611Z,2548.00
2023-04-25T15:32:18.685Z,2549.00
2023-04-25T15:33:18.709Z,2549.00
2023-04-25T15:34:18.739Z,2533.00
2023-04-25T15:35:18.799Z,2538.00
2023-04-25T15:36:18.860Z,2532.00
2023-04-25T15:37:18.895Z,2523.00
2023-04-25T15:38:18.932Z,2514.00
2023-04-25T15:39:19.027Z,2537.00
2023-04-25T15:40:19.048Z,2547.00
2023-04-25T15:41:19.093Z,2533.00
2023-04-25T15:42:19.173Z,2508.00
2023-04-25T15:43:19.205Z,2508.00
2023-04-25T15:44:19.250Z,2500.00
2023-04-25T15:45:19.304Z,2477.00
2023-04-25T15:46:19.449Z,2472.00
2023-04-25T15:47:19.421Z,2471.00
2023-04-25T15:48:19.458Z,2458.00
2023-04-25T15:49:19.520Z,2452.00
2023-04-25T15:50:19.601Z,2447.00
2023-04-25T15:51:19.607Z,2456.00
2023-04-25T15:52:19.753Z,2433.00
2023-04-25T15:53:19.713Z,2436.00
2023-04-25T15:54:19.772Z,2429.00
2023-04-25T15:55:19.803Z,2430.00
2023-04-25T15:56:19.836Z,2418.00
2023-04-25T15:57:19.884Z,2402.00
2023-04-25T15:58:19.962Z,2401.00
2023-04-25T15:59:20.014Z,2398.00
2023-04-25T16:00:20.033Z,2404.00
2023-04-25T16:01:20.126Z,2386.00
2023-04-25T16:02:20.193Z,2390.00
2023-04-25T16:03:20.393Z,2378.00
2023-04-25T16:04:20.450Z,2390.00
2023-04-25T16:05:20.317Z,2368.00
2023-04-25T16:06:20.337Z,2359.00
2023-04-25T16:07:20.390Z,2367.00
2023-04-25T16:08:20.418Z,2364.00
2023-04-25T16:09:20.516Z,2353.00
2023-04-25T16:10:20.610Z,2347.00
2023-04-25T16:11:20.604Z,2346.00
2023-04-25T16:12:20.719Z,2340.00
2023-04-25T16:13:20.719Z,2347.00
2023-04-25T16:14:20.734Z,2337.00
2023-04-25T16:15:20.859Z,2338.00
2023-04-25T16:16:20.915Z,2332.00
2023-04-25T16:17:20.917Z,2325.00
2023-04-25T16:18:21.056Z,2324.00
2023-04-25T16:19:21.105Z,2313.00
2023-04-25T16:20:21.069Z,2308.00
2023-04-25T16:21:21.136Z,2312.00
2023-04-25T16:22:21.211Z,2307.00
2023-04-25T16:23:21.264Z,2303.00
2023-04-25T16:24:21.304Z,2305.00
2023-04-25T16:25:21.346Z,2289.00
2023-04-25T16:26:21.410Z,2284.00
2023-04-25T16:27:21.474Z,2282.00
2023-04-25T16:28:21.504Z,2280.00
2023-04-25T16:29:21.583Z,2279.00
2023-04-25T16:30:21.636Z,2274.00
2023-04-25T16:31:21.725Z,2256.00
2023-04-25T16:32:21.827Z,2252.00
2023-04-25T16:33:21.805Z,2261.00
2023-04-25T16:34:21.793Z,2257.00
2023-04-25T16:35:21.877Z,2248.00
2023-04-25T16:36:21.905Z,2253.00
2023-04-25T16:37:21.964Z,2252.00
2023-04-25T16:38:21.999Z,2237.00
2023-04-25T16:39:22.051Z,2238.00
2023-04-25T16:40:22.106Z,2234.00
2023-04-25T16:41:22.129Z,2229.00
2023-04-25T16:42:22.174Z,2234.00
2023-04-25T16:43:22.192Z,2232.00
2023-04-25T16:44:22.260Z,2213.00
2023-04-25T16:45:22.299Z,2220.00
2023-04-25T16:46:22.349Z,2205.00
2023-04-25T16:47:22.412Z,2224.00
2023-04-25T16:48:22.441Z,2210.00
2023-04-25T16:49:22.462Z,2200.00
2023-04-25T16:50:22.531Z,2192.00
2023-04-25T16:51:22.592Z,2204.00
2023-04-25T16:52:22.670Z,2181.00
2023-04-25T16:53:22.667Z,2208.00
2023-04-25T16:54:22.728Z,2191.00
2023-04-25T16:55:22.756Z,2187.00
2023-04-25T16:56:22.796Z,2183.00
2023-04-25T16:57:22.859Z,2172.00
2023-04-25T16:58:22.878Z,2171.00
2023-04-25T16:59:22.912Z,2170.00
2023-04-25T17:00:22.998Z,2172.00
